Time;durP1;ratioP1;P1;durP2;ratioP2;P2;SDS_P1;SDS_P2;PMS_P1;PMS_P2;Temp;Humidity;BMP_temperature;BMP_pressure;BME280_temperature;BME280_humidity;BME280_pressure;Samples;Min_cycle;Max_cycle;Signal;HPM_P1;HPM_P2
2024/01/03 00:01:32;;;;;;;;;;;;;;;12.99;81.33;99300.31;5054157;28;19924;-62
2024/01/03 00:04:00;;;;;;;;;;;;;;;13.08;80.05;99301.72;5051442;28;20486;-62
2024/01/03 00:06:31;;;;;;;;;;;;;;;13.05;79.72;99290.59;5053541;28;19932;-62
2024/01/03 00:08:59;;;;;;;;;;;;;;;12.98;80.38;99284.88;5068587;28;19920;-62
2024/01/03 00:11:28;;;;;;;;;;;;;;;13.00;79.99;99285.31;5068909;28;19920;-62
2024/01/03 00:14:05;;;;;;;;;;;;;;;13.09;80.13;99283.16;5053811;28;20027;-63
2024/01/03 00:16:33;;;;;;;;;;;;;;;13.29;79.32;99288.31;5050824;28;19931;-62
2024/01/03 00:19:02;;;;;;;;;;;;;;;12.98;80.59;99287.63;5053477;28;19932;-62
2024/01/03 00:21:29;;;;;;;;;;;;;;;13.01;81.25;99298.78;5051903;28;20392;-62
2024/01/03 00:24:05;;;;;;;;;;;;;;;13.03;81.27;99299.25;5066972;28;19921;-65
2024/01/03 00:26:33;;;;;;;;;;;;;;;13.06;80.93;99304.03;5047481;28;19925;-62
2024/01/03 00:29:01;;;;;;;;;;;;;;;13.24;80.69;99307.16;5052580;28;19931;-62
2024/01/03 00:31:41;;;;;;;;;;;;;;;13.38;79.39;99322.06;5050565;28;19921;-62
2024/01/03 00:34:21;;;;;;;;;;;;;;;13.00;80.40;99319.28;5052311;28;19921;-62
2024/01/03 00:36:52;;;;;;;;;;;;;;;13.11;80.63;99306.50;5052470;28;19924;-62
2024/01/03 00:39:23;;;;;;;;;;;;;;;12.92;81.26;99303.72;5066519;28;19924;-62
2024/01/03 00:41:50;;;;;;;;;;;;;;;12.83;82.18;99297.59;5052411;28;19921;-62
2024/01/03 00:44:17;;;;;;;;;;;;;;;12.99;81.53;99298.31;5058361;28;19943;-60
2024/01/03 00:46:46;;;;;;;;;;;;;;;12.98;81.34;99293.97;5052271;28;19921;-62
2024/01/03 00:49:13;;;;;;;;;;;;;;;12.84;82.45;99293.69;5050742;28;19925;-62
2024/01/03 00:51:44;;;;;;;;;;;;;;;12.97;81.66;99292.38;5050851;28;20454;-61
2024/01/03 00:54:11;;;;;;;;;;;;;;;13.12;81.30;99291.53;5033785;28;19928;-62
2024/01/03 00:56:38;;;;;;;;;;;;;;;12.96;82.20;99290.78;5049638;28;19920;-62
2024/01/03 00:59:05;;;;;;;;;;;;;;;13.14;81.36;99288.41;5031854;28;19928;-62
2024/01/03 01:01:32;;;;;;;;;;;;;;;13.28;80.37;99289.50;5031357;28;19925;-62
2024/01/03 01:03:59;;;;;;;;;;;;;;;13.05;81.24;99298.88;5032100;28;19928;-62
2024/01/03 01:06:26;;;;;;;;;;;;;;;13.10;81.55;99293.06;5032711;28;19920;-63
2024/01/03 01:08:54;;;;;;;;;;;;;;;12.89;81.58;99296.16;5050174;28;19947;-63
2024/01/03 01:11:21;;;;;;;;;;;;;;;12.78;82.47;99294.34;5051938;28;19928;-62
2024/01/03 01:13:48;;;;;;;;;;;;;;;12.80;83.23;99290.03;5050779;28;20659;-63
2024/01/03 01:16:15;;;;;;;;;;;;;;;12.94;82.84;99290.34;5054754;28;19932;-62
2024/01/03 01:18:42;;;;;;;;;;;;;;;13.03;82.07;99279.91;5055523;28;19921;-62
2024/01/03 01:21:10;;;;;;;;;;;;;;;13.15;81.58;99285.28;5070031;28;19920;-62
2024/01/03 01:23:41;;;;;;;;;;;;;;;13.26;81.04;99291.81;5071163;28;19924;-62
2024/01/03 01:26:09;;;;;;;;;;;;;;;13.19;81.04;99291.69;5054212;28;20010;-62
2024/01/03 01:28:36;;;;;;;;;;;;;;;13.37;80.69;99287.28;5056248;28;19928;-61
2024/01/03 01:31:03;;;;;;;;;;;;;;;13.15;80.75;99284.47;5052106;28;19932;-61
2024/01/03 01:33:30;;;;;;;;;;;;;;;13.56;79.63;99284.47;5054550;28;19921;-62
2024/01/03 01:35:57;;;;;;;;;;;;;;;13.34;80.27;99290.78;5055969;28;19928;-62
2024/01/03 01:38:24;;;;;;;;;;;;;;;13.23;80.78;99286.22;5071597;28;19921;-62
2024/01/03 01:40:51;;;;;;;;;;;;;;;13.06;81.23;99287.44;5054252;28;20379;-64
2024/01/03 01:43:19;;;;;;;;;;;;;;;13.25;81.68;99289.41;5061143;28;19931;-65
2024/01/03 01:45:46;;;;;;;;;;;;;;;12.95;82.67;99299.44;5044504;28;19920;-62
2024/01/03 01:48:13;;;;;;;;;;;;;;;13.04;82.67;99294.53;5055587;28;19931;-64
2024/01/03 01:50:40;;;;;;;;;;;;;;;13.19;81.85;99294.44;5054196;28;19928;-62
2024/01/03 01:53:07;;;;;;;;;;;;;;;13.02;82.38;99296.84;5036195;28;19929;-64
2024/01/03 01:55:35;;;;;;;;;;;;;;;12.88;83.43;99302.84;5054853;28;19924;-62
2024/01/03 01:58:02;;;;;;;;;;;;;;;13.21;82.27;99294.88;5054279;28;19921;-63
2024/01/03 02:00:29;;;;;;;;;;;;;;;13.25;81.23;99290.19;5054339;28;20276;-63
2024/01/03 02:02:56;;;;;;;;;;;;;;;13.04;82.40;99289.78;5055317;28;19925;-63
2024/01/03 02:05:23;;;;;;;;;;;;;;;13.07;82.52;99289.06;5052059;28;19920;-62
2024/01/03 02:07:50;;;;;;;;;;;;;;;13.22;82.18;99288.19;5054633;28;20019;-62
2024/01/03 02:10:17;;;;;;;;;;;;;;;13.16;81.61;99283.31;5036136;28;19925;-61
2024/01/03 02:12:44;;;;;;;;;;;;;;;13.46;80.98;99270.44;5036149;28;19925;-62
2024/01/03 02:15:11;;;;;;;;;;;;;;;13.12;81.53;99276.91;5043613;28;19921;-62
2024/01/03 02:17:41;;;;;;;;;;;;;;;13.18;81.98;99276.25;5048336;28;19921;-62
2024/01/03 02:20:09;;;;;;;;;;;;;;;13.21;82.20;99275.53;5052245;28;20580;-62
2024/01/03 02:22:36;;;;;;;;;;;;;;;13.42;81.69;99270.38;5035017;28;19925;-61
2024/01/03 02:25:10;;;;;;;;;;;;;;;13.38;81.06;99264.00;5052727;28;19925;-62
2024/01/03 02:27:37;;;;;;;;;;;;;;;13.05;83.14;99274.00;5035612;28;19954;-61
2024/01/03 02:30:04;;;;;;;;;;;;;;;13.06;84.00;99273.63;5052837;28;19920;-61
2024/01/03 02:32:32;;;;;;;;;;;;;;;13.12;83.98;99266.66;5055329;28;19921;-63
2024/01/03 02:34:59;;;;;;;;;;;;;;;13.15;83.83;99285.28;5054080;28;19920;-61
2024/01/03 02:37:26;;;;;;;;;;;;;;;13.06;85.09;99281.91;5035199;28;19932;-61
2024/01/03 02:39:53;;;;;;;;;;;;;;;13.06;85.35;99276.41;5064026;28;19927;-62
2024/01/03 02:42:20;;;;;;;;;;;;;;;12.96;85.91;99281.69;5040255;28;19920;-61
2024/01/03 02:44:49;;;;;;;;;;;;;;;12.95;86.51;99274.56;5060185;28;19924;-62
2024/01/03 02:47:16;;;;;;;;;;;;;;;13.01;86.45;99267.56;5053167;28;19921;-62
2024/01/03 02:49:43;;;;;;;;;;;;;;;12.97;85.94;99273.00;5054216;28;19921;-62
2024/01/03 02:52:10;;;;;;;;;;;;;;;13.10;85.75;99263.44;5043371;28;19921;-61
2024/01/03 02:54:37;;;;;;;;;;;;;;;13.15;85.74;99265.91;5041432;28;19932;-62
2024/01/03 02:57:06;;;;;;;;;;;;;;;13.12;86.34;99272.19;5033627;28;19921;-61
2024/01/03 02:59:33;;;;;;;;;;;;;;;12.91;87.06;99266.19;5034103;28;19936;-62
2024/01/03 03:02:00;;;;;;;;;;;;;;;13.08;87.01;99263.00;5034074;28;19921;-62
2024/01/03 03:04:27;;;;;;;;;;;;;;;13.29;86.43;99257.91;5049794;28;19925;-62
2024/01/03 03:06:54;;;;;;;;;;;;;;;13.20;85.95;99256.50;5053902;28;19925;-62
2024/01/03 03:09:21;;;;;;;;;;;;;;;13.04;86.72;99259.38;5054152;28;19921;-62
2024/01/03 03:11:49;;;;;;;;;;;;;;;12.95;87.26;99255.22;5052691;28;19928;-62
2024/01/03 03:14:18;;;;;;;;;;;;;;;12.87;87.86;99237.69;5052886;28;19925;-62
2024/01/03 03:16:46;;;;;;;;;;;;;;;12.88;87.87;99255.06;5068064;28;20378;-63
2024/01/03 03:19:13;;;;;;;;;;;;;;;12.89;88.47;99251.94;5053993;28;19920;-62
2024/01/03 03:21:41;;;;;;;;;;;;;;;12.94;88.96;99257.16;5052620;28;20554;-62
2024/01/03 03:24:08;;;;;;;;;;;;;;;13.10;89.24;99260.69;5053213;28;20456;-62
2024/01/03 03:26:35;;;;;;;;;;;;;;;12.82;91.46;99264.81;5051607;28;19928;-63
2024/01/03 03:29:02;;;;;;;;;;;;;;;13.11;92.35;99258.72;5053339;28;19931;-60
2024/01/03 03:31:29;;;;;;;;;;;;;;;13.06;93.50;99232.16;5054336;28;19927;-62
2024/01/03 03:33:56;;;;;;;;;;;;;;;12.97;93.85;99234.31;5053499;28;19929;-62
2024/01/03 03:36:24;;;;;;;;;;;;;;;13.03;94.81;99224.63;5051260;28;20279;-62
2024/01/03 03:38:51;;;;;;;;;;;;;;;12.81;95.64;99239.16;5047636;28;19921;-62
2024/01/03 03:41:19;;;;;;;;;;;;;;;12.70;97.62;99234.56;5061319;28;19948;-62
2024/01/03 03:43:47;;;;;;;;;;;;;;;12.72;98.13;99224.75;5050028;28;19924;-62
2024/01/03 03:46:15;;;;;;;;;;;;;;;12.67;98.15;99230.56;5051491;28;20304;-61
2024/01/03 03:48:42;;;;;;;;;;;;;;;12.55;98.09;99216.09;5045659;28;19921;-60
2024/01/03 03:51:10;;;;;;;;;;;;;;;12.60;96.77;99255.28;5041470;28;20034;-59
2024/01/03 03:53:37;;;;;;;;;;;;;;;12.61;94.86;99207.16;5051079;28;19928;-60
2024/01/03 03:56:04;;;;;;;;;;;;;;;12.34;94.02;99208.94;5032017;28;19925;-59
2024/01/03 03:58:31;;;;;;;;;;;;;;;12.43;92.98;99200.44;5033601;28;19921;-58
2024/01/03 04:00:58;;;;;;;;;;;;;;;12.65;91.15;99198.94;5049930;28;19921;-59
2024/01/03 04:03:25;;;;;;;;;;;;;;;12.54;91.49;99208.94;5052834;28;20415;-61
2024/01/03 04:05:52;;;;;;;;;;;;;;;12.56;92.65;99218.50;5053152;28;20323;-61
2024/01/03 04:08:19;;;;;;;;;;;;;;;12.58;91.42;99216.16;5053189;28;19955;-61
2024/01/03 04:10:46;;;;;;;;;;;;;;;12.75;90.57;99232.31;5051780;28;19921;-60
2024/01/03 04:13:13;;;;;;;;;;;;;;;12.75;90.25;99231.50;5052782;28;19931;-59
2024/01/03 04:15:40;;;;;;;;;;;;;;;12.59;91.02;99239.84;5052513;28;19924;-61
2024/01/03 04:18:07;;;;;;;;;;;;;;;12.59;92.11;99248.13;5052313;28;20649;-59
2024/01/03 04:20:35;;;;;;;;;;;;;;;12.57;91.65;99242.16;5051857;28;19921;-58
2024/01/03 04:23:02;;;;;;;;;;;;;;;12.78;92.45;99241.84;5051443;28;19936;-61
2024/01/03 04:25:29;;;;;;;;;;;;;;;12.79;92.16;99241.47;5050883;28;19920;-61
2024/01/03 04:27:56;;;;;;;;;;;;;;;12.66;93.50;99245.53;5051543;28;19928;-59
2024/01/03 04:30:24;;;;;;;;;;;;;;;13.00;91.65;99244.66;5051306;28;19943;-60
2024/01/03 04:32:51;;;;;;;;;;;;;;;12.99;91.32;99242.28;5051663;28;20316;-60
2024/01/03 04:35:18;;;;;;;;;;;;;;;13.07;90.61;99252.31;5051234;28;19920;-60
2024/01/03 04:37:45;;;;;;;;;;;;;;;12.76;90.57;99256.00;5053017;28;19991;-61
2024/01/03 04:40:12;;;;;;;;;;;;;;;12.81;91.01;99257.69;5052385;28;19921;-60
2024/01/03 04:42:39;;;;;;;;;;;;;;;12.94;89.82;99259.13;5054195;28;19921;-60
2024/01/03 04:45:06;;;;;;;;;;;;;;;12.92;88.81;99262.25;5056300;28;20291;-62
2024/01/03 04:47:33;;;;;;;;;;;;;;;13.06;88.03;99256.22;5038906;28;19924;-61
2024/01/03 04:50:01;;;;;;;;;;;;;;;12.79;88.57;99265.53;5032755;28;19930;-60
2024/01/03 04:52:28;;;;;;;;;;;;;;;12.78;88.25;99272.25;5055297;28;19920;-60
2024/01/03 04:54:55;;;;;;;;;;;;;;;12.61;88.14;99276.19;5054958;28;19925;-61
2024/01/03 04:57:22;;;;;;;;;;;;;;;12.73;88.61;99278.03;5054467;28;19921;-62
2024/01/03 04:59:49;;;;;;;;;;;;;;;12.85;87.48;99275.94;5054380;28;19931;-61
2024/01/03 05:02:16;;;;;;;;;;;;;;;12.73;87.57;99273.31;5052508;28;19924;-59
2024/01/03 05:04:45;;;;;;;;;;;;;;;12.56;87.39;99272.91;5053393;28;19921;-60
2024/01/03 05:07:12;;;;;;;;;;;;;;;12.58;88.75;99270.59;5055000;28;19920;-58
2024/01/03 05:09:39;;;;;;;;;;;;;;;12.61;88.65;99264.34;5053781;28;19921;-61
2024/01/03 05:12:06;;;;;;;;;;;;;;;12.49;88.24;99273.56;5054982;28;19927;-61
2024/01/03 05:14:33;;;;;;;;;;;;;;;12.62;87.43;99280.59;5036293;28;20356;-62
2024/01/03 05:17:00;;;;;;;;;;;;;;;12.59;87.46;99284.03;5033761;28;19921;-61
2024/01/03 05:19:28;;;;;;;;;;;;;;;12.72;86.29;99282.78;5050584;28;19921;-66
2024/01/03 05:21:55;;;;;;;;;;;;;;;12.87;84.46;99292.94;5050008;28;19920;-62
2024/01/03 05:24:22;;;;;;;;;;;;;;;12.87;83.91;99283.84;5055766;28;20301;-61
2024/01/03 05:26:49;;;;;;;;;;;;;;;12.57;83.85;99285.59;5055064;28;20135;-61
2024/01/03 05:29:16;;;;;;;;;;;;;;;12.57;83.81;99288.34;5055784;28;19921;-60
2024/01/03 05:31:43;;;;;;;;;;;;;;;12.42;84.92;99289.97;5054716;28;19921;-60
2024/01/03 05:34:10;;;;;;;;;;;;;;;12.37;85.93;99290.25;5056092;28;19933;-61
2024/01/03 05:36:38;;;;;;;;;;;;;;;12.54;86.09;99295.38;5055504;28;19925;-61
2024/01/03 05:39:05;;;;;;;;;;;;;;;12.68;85.49;99294.88;5055261;28;19932;-61
2024/01/03 05:41:32;;;;;;;;;;;;;;;12.62;85.86;99297.16;5055123;28;19921;-59
2024/01/03 05:43:59;;;;;;;;;;;;;;;12.72;85.64;99298.53;5056700;28;19921;-59
2024/01/03 05:46:26;;;;;;;;;;;;;;;12.56;87.43;99304.09;5055402;28;19921;-60
2024/01/03 05:48:53;;;;;;;;;;;;;;;12.63;88.01;99308.97;5075475;28;19920;-60
2024/01/03 05:51:21;;;;;;;;;;;;;;;12.35;88.98;99314.66;5064396;28;19920;-60
2024/01/03 05:53:48;;;;;;;;;;;;;;;12.42;89.97;99318.41;5055709;28;19920;-60
2024/01/03 05:56:16;;;;;;;;;;;;;;;12.48;90.57;99322.47;5054137;28;19920;-62
2024/01/03 05:58:43;;;;;;;;;;;;;;;12.59;90.79;99319.19;5055464;28;20292;-61
2024/01/03 06:01:10;;;;;;;;;;;;;;;12.64;90.39;99311.38;5053764;28;19927;-59
2024/01/03 06:03:38;;;;;;;;;;;;;;;12.51;90.73;99322.91;5055243;28;19921;-60
2024/01/03 06:06:05;;;;;;;;;;;;;;;12.47;91.44;99322.84;5054999;28;19921;-61
2024/01/03 06:08:32;;;;;;;;;;;;;;;12.58;90.78;99323.09;5053889;28;19927;-59
2024/01/03 06:10:59;;;;;;;;;;;;;;;12.49;91.50;99320.53;5055079;28;19940;-61
2024/01/03 06:13:27;;;;;;;;;;;;;;;12.53;91.81;99323.38;5055029;28;19920;-62
2024/01/03 06:15:54;;;;;;;;;;;;;;;12.56;91.66;99320.69;5053621;28;19924;-61
2024/01/03 06:18:21;;;;;;;;;;;;;;;12.43;92.25;99319.19;5047081;28;19920;-61
2024/01/03 06:20:49;;;;;;;;;;;;;;;12.43;92.70;99314.47;5035186;28;19921;-60
2024/01/03 06:23:16;;;;;;;;;;;;;;;12.38;92.77;99311.19;5049501;28;20316;-62
2024/01/03 06:25:43;;;;;;;;;;;;;;;12.53;92.53;99321.41;5032953;28;19987;-60
2024/01/03 06:28:10;;;;;;;;;;;;;;;12.65;91.72;99321.28;5049536;28;19925;-63
2024/01/03 06:30:38;;;;;;;;;;;;;;;12.69;90.79;99324.94;5055293;28;19920;-58
2024/01/03 06:33:06;;;;;;;;;;;;;;;12.82;90.39;99317.28;5054394;28;19924;-63
2024/01/03 06:35:33;;;;;;;;;;;;;;;12.76;89.65;99321.53;5062574;28;19920;-60
2024/01/03 06:38:03;;;;;;;;;;;;;;;12.60;89.97;99324.34;5035088;28;20316;-60
2024/01/03 06:40:31;;;;;;;;;;;;;;;12.70;90.47;99334.00;5059589;28;19931;-59
2024/01/03 06:42:58;;;;;;;;;;;;;;;12.68;90.25;99326.09;5060120;28;20070;-59
2024/01/03 06:45:25;;;;;;;;;;;;;;;12.69;90.43;99335.19;5057503;28;19936;-58
2024/01/03 06:47:52;;;;;;;;;;;;;;;12.77;90.16;99342.47;5063761;28;19920;-60
2024/01/03 06:50:19;;;;;;;;;;;;;;;12.70;90.88;99345.06;5071195;28;19924;-61
2024/01/03 06:52:46;;;;;;;;;;;;;;;12.57;90.98;99327.03;5053118;28;20341;-60
2024/01/03 06:55:13;;;;;;;;;;;;;;;12.34;92.77;99341.47;5046896;28;20320;-60
2024/01/03 06:57:43;;;;;;;;;;;;;;;12.41;92.56;99338.09;5046157;28;19920;-62
2024/01/03 07:00:13;;;;;;;;;;;;;;;12.53;92.21;99342.69;5034015;28;19932;-61
2024/01/03 07:02:40;;;;;;;;;;;;;;;12.51;92.16;99348.59;5037995;28;20280;-61
2024/01/03 07:05:07;;;;;;;;;;;;;;;12.60;91.92;99345.63;5062748;28;20403;-61
2024/01/03 07:07:34;;;;;;;;;;;;;;;12.56;91.10;99341.97;5052782;28;19931;-60
2024/01/03 07:10:01;;;;;;;;;;;;;;;12.80;90.90;99328.72;5045641;28;19921;-59
2024/01/03 07:12:28;;;;;;;;;;;;;;;12.80;90.10;99330.66;5037242;28;19929;-57
2024/01/03 07:14:56;;;;;;;;;;;;;;;12.71;89.96;99341.94;5035559;28;20605;-59
2024/01/03 07:17:23;;;;;;;;;;;;;;;12.73;90.96;99333.28;5051440;28;19921;-59
2024/01/03 07:19:50;;;;;;;;;;;;;;;12.75;91.21;99336.47;5051076;28;19927;-59
2024/01/03 07:22:17;;;;;;;;;;;;;;;12.66;92.04;99349.72;5053428;28;19924;-60
2024/01/03 07:24:45;;;;;;;;;;;;;;;12.71;92.79;99349.44;5047452;28;19996;-58
2024/01/03 07:27:12;;;;;;;;;;;;;;;12.76;92.39;99344.41;5049583;28;19924;-59
2024/01/03 07:29:41;;;;;;;;;;;;;;;12.70;91.27;99350.59;5051334;28;20589;-60
2024/01/03 07:32:07;;;;;;;;;;;;;;;12.91;91.71;99342.78;5054031;28;19921;-57
2024/01/03 07:34:35;;;;;;;;;;;;;;;12.71;91.68;99352.19;5053967;28;19932;-62
2024/01/03 07:37:02;;;;;;;;;;;;;;;12.51;92.81;99356.06;5070366;28;19959;-63
2024/01/03 07:39:29;;;;;;;;;;;;;;;12.57;92.69;99360.16;5052282;28;19920;-62
2024/01/03 07:41:56;;;;;;;;;;;;;;;12.64;91.47;99363.88;5053427;28;19943;-62
2024/01/03 07:44:23;;;;;;;;;;;;;;;12.79;91.05;99357.53;5049248;28;19929;-62
2024/01/03 07:46:51;;;;;;;;;;;;;;;12.95;90.77;99366.56;5046142;28;19942;-62
2024/01/03 07:49:18;;;;;;;;;;;;;;;12.73;90.32;99350.66;5044138;28;19928;-60
2024/01/03 07:51:49;;;;;;;;;;;;;;;12.82;90.40;99358.75;5049008;28;19924;-59
2024/01/03 07:54:16;;;;;;;;;;;;;;;12.69;89.55;99366.38;5050699;28;19935;-60
2024/01/03 07:56:43;;;;;;;;;;;;;;;12.62;90.88;99365.41;5067214;28;19921;-60
2024/01/03 07:59:10;;;;;;;;;;;;;;;12.87;89.47;99350.97;5050448;28;20359;-61
2024/01/03 08:01:37;;;;;;;;;;;;;;;12.84;89.79;99365.53;5049650;28;19943;-58
2024/01/03 08:04:05;;;;;;;;;;;;;;;12.86;88.95;99365.97;5044569;28;20627;-61
2024/01/03 08:06:33;;;;;;;;;;;;;;;12.64;89.45;99374.91;5045861;28;19956;-62
2024/01/03 08:09:00;;;;;;;;;;;;;;;13.61;90.21;99384.94;5041093;28;19921;-59
2024/01/03 08:11:27;;;;;;;;;;;;;;;13.34;82.06;99370.97;5049447;28;19920;-57
2024/01/03 08:13:54;;;;;;;;;;;;;;;12.90;83.68;99385.41;5048888;28;19925;-60
2024/01/03 08:16:21;;;;;;;;;;;;;;;12.79;87.95;99390.69;5046761;28;19931;-59
2024/01/03 08:18:48;;;;;;;;;;;;;;;12.73;90.87;99396.81;5046913;28;20330;-57
2024/01/03 08:21:16;;;;;;;;;;;;;;;12.81;91.50;99398.59;5048603;28;20402;-61
2024/01/03 08:23:43;;;;;;;;;;;;;;;12.73;92.31;99408.69;5063146;28;19931;-58
2024/01/03 08:26:10;;;;;;;;;;;;;;;12.45;95.87;99408.00;5058415;28;19927;-60
2024/01/03 08:28:41;;;;;;;;;;;;;;;12.48;95.86;99412.03;5043595;28;20603;-56
2024/01/03 08:31:13;;;;;;;;;;;;;;;12.47;97.52;99413.97;5061278;28;20613;-58
2024/01/03 08:33:40;;;;;;;;;;;;;;;12.43;97.71;99411.13;5046375;28;19921;-59
2024/01/03 08:36:11;;;;;;;;;;;;;;;12.22;99.43;99402.31;5046677;28;20415;-61
2024/01/03 08:38:38;;;;;;;;;;;;;;;12.36;100.00;99410.94;5044853;28;19925;-57
2024/01/03 08:41:19;;;;;;;;;;;;;;;12.55;99.68;99404.72;5049049;28;19931;-56
2024/01/03 08:43:46;;;;;;;;;;;;;;;12.38;99.05;99403.13;5039495;28;19924;-58
2024/01/03 08:46:13;;;;;;;;;;;;;;;12.48;99.04;99401.78;5045540;28;19929;-60
2024/01/03 08:48:41;;;;;;;;;;;;;;;12.64;99.16;99393.47;5048354;28;19944;-62
2024/01/03 08:51:13;;;;;;;;;;;;;;;12.52;97.58;99396.34;5034444;28;19921;-60
2024/01/03 08:53:40;;;;;;;;;;;;;;;12.37;98.18;99397.94;5038115;28;19921;-58
2024/01/03 08:56:11;;;;;;;;;;;;;;;12.64;97.92;99397.03;5047014;28;19920;-59
2024/01/03 08:58:40;;;;;;;;;;;;;;;12.71;95.37;99383.38;5042568;28;20383;-60
2024/01/03 09:01:07;;;;;;;;;;;;;;;12.45;95.86;99394.19;5040887;28;19928;-57
2024/01/03 09:03:35;;;;;;;;;;;;;;;12.57;96.42;99396.84;5045434;28;20556;-59
2024/01/03 09:06:02;;;;;;;;;;;;;;;12.74;95.58;99396.50;5051987;28;19928;-58
2024/01/03 09:08:30;;;;;;;;;;;;;;;12.58;95.21;99392.94;5035738;28;19925;-58
2024/01/03 09:10:57;;;;;;;;;;;;;;;12.64;94.67;99393.47;5040428;28;19921;-59
2024/01/03 09:13:24;;;;;;;;;;;;;;;12.62;94.16;99391.09;5047059;28;20308;-59
2024/01/03 09:15:52;;;;;;;;;;;;;;;12.61;93.14;99391.41;5061371;28;19936;-58
2024/01/03 09:18:21;;;;;;;;;;;;;;;12.74;93.13;99390.97;5045041;28;19924;-61
2024/01/03 09:20:48;;;;;;;;;;;;;;;12.96;92.31;99386.69;5064545;28;19928;-61
2024/01/03 09:23:15;;;;;;;;;;;;;;;12.78;92.20;99400.13;5051781;28;20045;-62
2024/01/03 09:25:43;;;;;;;;;;;;;;;12.79;91.44;99398.16;5044985;28;19927;-58
2024/01/03 09:28:10;;;;;;;;;;;;;;;12.79;92.16;99393.44;5051013;28;19921;-59
2024/01/03 09:30:38;;;;;;;;;;;;;;;12.82;90.67;99391.91;5043079;28;19928;-60
2024/01/03 09:33:05;;;;;;;;;;;;;;;12.92;90.79;99405.19;5041665;28;19932;-62
2024/01/03 09:35:32;;;;;;;;;;;;;;;13.02;89.78;99391.59;5046892;28;19921;-60
2024/01/03 09:37:59;;;;;;;;;;;;;;;12.96;89.36;99403.28;5045993;28;19921;-60
2024/01/03 09:40:26;;;;;;;;;;;;;;;13.13;88.49;99408.44;5048964;28;19921;-62
2024/01/03 09:42:53;;;;;;;;;;;;;;;13.25;88.32;99409.09;5051424;28;19920;-60
2024/01/03 09:45:21;;;;;;;;;;;;;;;13.30;88.49;99394.97;5067934;28;19925;-57
2024/01/03 09:47:48;;;;;;;;;;;;;;;13.48;88.03;99401.69;5049695;28;19921;-61
2024/01/03 09:50:16;;;;;;;;;;;;;;;13.46;87.57;99405.97;5049789;28;19920;-60
2024/01/03 09:52:44;;;;;;;;;;;;;;;13.05;88.83;99390.09;5052614;28;19928;-62
2024/01/03 09:55:11;;;;;;;;;;;;;;;13.26;89.26;99396.09;5052562;28;19943;-59
2024/01/03 09:57:38;;;;;;;;;;;;;;;13.30;88.70;99402.50;5054736;28;19928;-59
2024/01/03 10:00:08;;;;;;;;;;;;;;;13.35;88.47;99403.00;5060701;28;20334;-57
2024/01/03 10:02:36;;;;;;;;;;;;;;;13.41;88.03;99403.50;5055100;28;19932;-60
2024/01/03 10:05:03;;;;;;;;;;;;;;;13.30;88.36;99408.81;5049361;28;20359;-61
2024/01/03 10:07:33;;;;;;;;;;;;;;;13.38;89.91;99402.28;5052753;28;21093;-60
2024/01/03 10:10:01;;;;;;;;;;;;;;;13.44;89.01;99408.34;5052430;28;19921;-59
2024/01/03 10:12:34;;;;;;;;;;;;;;;13.28;90.32;99402.88;5046681;28;19920;-62
2024/01/03 10:15:17;;;;;;;;;;;;;;;13.36;90.64;99401.84;5049050;28;20403;-61
2024/01/03 10:17:48;;;;;;;;;;;;;;;13.50;89.57;99402.13;5062069;28;19920;-64
2024/01/03 10:20:25;;;;;;;;;;;;;;;13.53;89.22;99411.66;5052897;28;19920;-67
2024/01/03 10:23:12;;;;;;;;;;;;;;;13.77;88.05;99408.59;5048750;28;20372;-63
2024/01/03 10:25:43;;;;;;;;;;;;;;;13.72;88.48;99397.03;5052309;28;19927;-64
2024/01/03 10:28:11;;;;;;;;;;;;;;;13.71;88.53;99390.69;5062532;28;19921;-63
2024/01/03 10:30:38;;;;;;;;;;;;;;;13.66;88.26;99388.22;5067128;28;20350;-63
2024/01/03 10:33:09;;;;;;;;;;;;;;;13.49;89.13;99394.97;5048565;28;19921;-62
2024/01/03 10:35:37;;;;;;;;;;;;;;;13.57;88.36;99391.22;5053702;28;20287;-61
2024/01/03 10:38:04;;;;;;;;;;;;;;;13.60;88.76;99392.44;5050682;28;19921;-62
2024/01/03 10:40:32;;;;;;;;;;;;;;;13.71;87.67;99387.91;5051836;28;21031;-62
2024/01/03 10:43:01;;;;;;;;;;;;;;;13.81;87.03;99379.00;5053497;28;19921;-62
2024/01/03 10:45:35;;;;;;;;;;;;;;;13.53;88.19;99381.22;5051376;28;20300;-62
2024/01/03 10:48:05;;;;;;;;;;;;;;;13.63;87.90;99377.88;5017928;28;19924;-62
2024/01/03 10:50:34;;;;;;;;;;;;;;;13.51;88.36;99386.34;5048569;28;19921;-64
2024/01/03 10:53:03;;;;;;;;;;;;;;;13.84;87.04;99370.00;5047336;28;19928;-64
2024/01/03 10:55:32;;;;;;;;;;;;;;;13.75;86.39;99374.94;5049953;28;20500;-62
2024/01/03 10:58:03;;;;;;;;;;;;;;;13.65;86.40;99381.06;5045259;28;19928;-61
2024/01/03 11:00:30;;;;;;;;;;;;;;;13.83;86.02;99375.88;5049642;28;20442;-62
2024/01/03 11:06:28;;;;;;;;;;;;;;;13.61;86.26;99374.69;5049578;28;19932;-64
2024/01/03 11:08:59;;;;;;;;;;;;;;;13.71;85.80;99378.81;5050583;28;19925;-63
2024/01/03 11:11:36;;;;;;;;;;;;;;;13.67;85.83;99372.41;5065950;28;19921;-62
2024/01/03 11:14:24;;;;;;;;;;;;;;;13.70;85.63;99371.69;5048655;28;19921;-62
2024/01/03 11:16:51;;;;;;;;;;;;;;;13.64;86.06;99371.16;5052619;28;19921;-62
2024/01/03 11:19:28;;;;;;;;;;;;;;;13.76;85.43;99356.34;5049480;28;19921;-64
2024/01/03 11:21:57;;;;;;;;;;;;;;;13.89;84.53;99346.72;5050966;28;19924;-62
2024/01/03 11:24:27;;;;;;;;;;;;;;;13.91;84.08;99356.28;5053333;28;19928;-62
2024/01/03 11:26:58;;;;;;;;;;;;;;;14.05;83.26;99347.41;5053028;28;19925;-62
2024/01/03 11:29:45;;;;;;;;;;;;;;;13.97;83.70;99335.41;5053049;28;19952;-64
2024/01/03 11:32:13;;;;;;;;;;;;;;;14.02;82.82;99328.75;5049737;28;19932;-64
2024/01/03 11:34:41;;;;;;;;;;;;;;;14.24;81.95;99320.41;5049672;28;19935;-62
2024/01/03 11:37:11;;;;;;;;;;;;;;;14.50;80.28;99303.88;5051645;28;19928;-61
2024/01/03 11:39:43;;;;;;;;;;;;;;;14.27;80.68;99313.38;5050166;28;19928;-61
2024/01/03 11:42:10;;;;;;;;;;;;;;;14.24;81.51;99306.56;5055286;28;19920;-63
2024/01/03 11:44:37;;;;;;;;;;;;;;;14.21;81.38;99282.41;5050535;28;19924;-62
2024/01/03 11:47:04;;;;;;;;;;;;;;;14.24;81.10;99278.09;5053737;28;19924;-63
2024/01/03 11:49:31;;;;;;;;;;;;;;;14.49;79.71;99273.75;5050301;28;19927;-67
2024/01/03 11:51:59;;;;;;;;;;;;;;;14.34;80.21;99277.50;5051222;28;19936;-63
2024/01/03 11:54:27;;;;;;;;;;;;;;;14.39;80.06;99272.44;5048633;28;19921;-61
2024/01/03 11:56:56;;;;;;;;;;;;;;;14.42;80.20;99279.19;5049830;28;19920;-63
2024/01/03 11:59:23;;;;;;;;;;;;;;;14.51;80.79;99271.41;5050191;28;19928;-62
2024/01/03 12:01:56;;;;;;;;;;;;;;;14.42;80.75;99268.09;5047251;28;19921;-62
2024/01/03 12:04:23;;;;;;;;;;;;;;;14.18;82.37;99247.16;5044998;28;20394;-63
2024/01/03 12:06:50;;;;;;;;;;;;;;;14.33;81.96;99254.53;5049236;28;20792;-61
2024/01/03 12:09:17;;;;;;;;;;;;;;;14.32;82.43;99255.72;5048781;28;19936;-60
2024/01/03 12:11:45;;;;;;;;;;;;;;;14.30;83.16;99240.63;5062057;28;19931;-63
2024/01/03 12:14:18;;;;;;;;;;;;;;;14.18;83.88;99235.28;5049427;28;19928;-62
2024/01/03 12:16:46;;;;;;;;;;;;;;;14.42;84.33;99221.00;5047238;28;19929;-64
2024/01/03 12:19:26;;;;;;;;;;;;;;;14.07;86.22;99228.78;5050779;28;19921;-67
2024/01/03 12:21:54;;;;;;;;;;;;;;;14.20;86.27;99230.16;5044245;28;20592;-61
2024/01/03 12:24:21;;;;;;;;;;;;;;;14.04;88.03;99210.94;5051011;28;19939;-60
2024/01/03 12:26:48;;;;;;;;;;;;;;;13.94;87.56;99200.50;5047485;28;19924;-62
2024/01/03 12:29:16;;;;;;;;;;;;;;;13.65;89.08;99222.56;5047371;28;19936;-62
2024/01/03 12:31:43;;;;;;;;;;;;;;;13.89;89.00;99200.84;5049457;28;19920;-63
2024/01/03 12:34:10;;;;;;;;;;;;;;;13.82;89.08;99186.06;5047128;28;19921;-62
2024/01/03 12:36:38;;;;;;;;;;;;;;;13.92;88.44;99205.63;5049997;28;19929;-63
2024/01/03 12:39:05;;;;;;;;;;;;;;;13.70;87.06;99181.56;5049512;28;20416;-62
2024/01/03 12:41:32;;;;;;;;;;;;;;;13.46;89.05;99193.78;5050207;28;19940;-63
2024/01/03 12:43:59;;;;;;;;;;;;;;;13.43;90.54;99183.47;5048701;28;20471;-63
2024/01/03 12:46:26;;;;;;;;;;;;;;;13.39;91.44;99190.09;5050223;28;20442;-64
2024/01/03 12:48:53;;;;;;;;;;;;;;;13.44;91.07;99203.66;5049616;28;19928;-62
2024/01/03 12:51:21;;;;;;;;;;;;;;;13.46;90.66;99191.03;5049334;28;20043;-62
2024/01/03 12:53:59;;;;;;;;;;;;;;;13.62;89.89;99201.97;5061524;28;19929;-61
2024/01/03 12:56:26;;;;;;;;;;;;;;;13.70;88.85;99205.66;5049016;28;19946;-62